sensor_id;sensor_type;location;lat;lon;timestamp;P1;durP1;ratioP1;P2;durP2;ratioP2
47778;SDS011;33538;48.432;11.350;2023-03-31T00:00:40;3.65;;;2.25;;
47778;SDS011;33538;48.432;11.350;2023-03-31T00:03:07;6.10;;;2.55;;
47778;SDS011;33538;48.432;11.350;2023-03-31T00:05:35;4.28;;;2.15;;
47778;SDS011;33538;48.432;11.350;2023-03-31T00:08:02;3.63;;;2.03;;
47778;SDS011;33538;48.432;11.350;2023-03-31T00:10:30;3.95;;;2.58;;
47778;SDS011;33538;48.432;11.350;2023-03-31T00:12:59;5.88;;;2.35;;
47778;SDS011;33538;48.432;11.350;2023-03-31T00:15:27;4.85;;;2.20;;
47778;SDS011;33538;48.432;11.350;2023-03-31T00:17:54;4.47;;;2.15;;
47778;SDS011;33538;48.432;11.350;2023-03-31T00:20:22;5.57;;;3.05;;
47778;SDS011;33538;48.432;11.350;2023-03-31T00:22:49;4.25;;;2.47;;
47778;SDS011;33538;48.432;11.350;2023-03-31T00:25:15;5.38;;;2.50;;
47778;SDS011;33538;48.432;11.350;2023-03-31T00:27:44;6.82;;;2.85;;
47778;SDS011;33538;48.432;11.350;2023-03-31T00:30:12;7.05;;;2.80;;
47778;SDS011;33538;48.432;11.350;2023-03-31T00:32:39;4.72;;;2.60;;
47778;SDS011;33538;48.432;11.350;2023-03-31T00:35:07;6.55;;;2.63;;
47778;SDS011;33538;48.432;11.350;2023-03-31T00:37:34;6.50;;;2.65;;
47778;SDS011;33538;48.432;11.350;2023-03-31T00:40:01;3.97;;;2.35;;
47778;SDS011;33538;48.432;11.350;2023-03-31T00:42:29;4.95;;;2.58;;
47778;SDS011;33538;48.432;11.350;2023-03-31T00:47:54;4.97;;;3.03;;
47778;SDS011;33538;48.432;11.350;2023-03-31T00:50:28;5.20;;;2.90;;
47778;SDS011;33538;48.432;11.350;2023-03-31T00:53:00;5.38;;;2.50;;
47778;SDS011;33538;48.432;11.350;2023-03-31T00:55:32;4.70;;;2.80;;
47778;SDS011;33538;48.432;11.350;2023-03-31T00:58:01;9.60;;;3.22;;
47778;SDS011;33538;48.432;11.350;2023-03-31T01:00:31;4.78;;;2.70;;
47778;SDS011;33538;48.432;11.350;2023-03-31T01:02:58;4.47;;;2.97;;
47778;SDS011;33538;48.432;11.350;2023-03-31T01:05:32;3.90;;;2.40;;
47778;SDS011;33538;48.432;11.350;2023-03-31T01:08:01;7.35;;;3.28;;
47778;SDS011;33538;48.432;11.350;2023-03-31T01:10:31;8.05;;;2.97;;
47778;SDS011;33538;48.432;11.350;2023-03-31T01:12:59;5.35;;;2.88;;
47778;SDS011;33538;48.432;11.350;2023-03-31T01:15:26;7.03;;;3.30;;
47778;SDS011;33538;48.432;11.350;2023-03-31T01:17:54;5.63;;;2.55;;
47778;SDS011;33538;48.432;11.350;2023-03-31T01:20:23;4.00;;;2.80;;
47778;SDS011;33538;48.432;11.350;2023-03-31T01:26:06;7.57;;;3.45;;
47778;SDS011;33538;48.432;11.350;2023-03-31T01:28:51;5.28;;;2.67;;
47778;SDS011;33538;48.432;11.350;2023-03-31T01:31:33;6.68;;;2.95;;
47778;SDS011;33538;48.432;11.350;2023-03-31T01:34:37;8.88;;;3.10;;
47778;SDS011;33538;48.432;11.350;2023-03-31T01:37:36;6.22;;;2.90;;
47778;SDS011;33538;48.432;11.350;2023-03-31T01:40:30;6.50;;;3.40;;
47778;SDS011;33538;48.432;11.350;2023-03-31T01:45:49;5.18;;;3.03;;
47778;SDS011;33538;48.432;11.350;2023-03-31T01:48:24;8.35;;;3.38;;
47778;SDS011;33538;48.432;11.350;2023-03-31T01:51:00;6.07;;;3.50;;
47778;SDS011;33538;48.432;11.350;2023-03-31T01:53:32;4.57;;;3.08;;
47778;SDS011;33538;48.432;11.350;2023-03-31T01:56:09;11.43;;;2.83;;
47778;SDS011;33538;48.432;11.350;2023-03-31T01:58:41;5.90;;;3.35;;
47778;SDS011;33538;48.432;11.350;2023-03-31T02:01:16;7.78;;;3.80;;
47778;SDS011;33538;48.432;11.350;2023-03-31T02:03:47;5.88;;;3.65;;
47778;SDS011;33538;48.432;11.350;2023-03-31T02:06:19;4.68;;;3.22;;
47778;SDS011;33538;48.432;11.350;2023-03-31T02:08:51;5.60;;;3.90;;
47778;SDS011;33538;48.432;11.350;2023-03-31T02:11:22;6.75;;;3.60;;
47778;SDS011;33538;48.432;11.350;2023-03-31T02:13:51;6.95;;;3.35;;
47778;SDS011;33538;48.432;11.350;2023-03-31T02:16:19;4.80;;;2.60;;
47778;SDS011;33538;48.432;11.350;2023-03-31T02:18:49;5.45;;;3.17;;
47778;SDS011;33538;48.432;11.350;2023-03-31T02:21:19;5.05;;;2.88;;
47778;SDS011;33538;48.432;11.350;2023-03-31T02:23:47;6.18;;;3.20;;
47778;SDS011;33538;48.432;11.350;2023-03-31T02:26:17;8.10;;;3.47;;
47778;SDS011;33538;48.432;11.350;2023-03-31T02:28:50;5.78;;;3.38;;
47778;SDS011;33538;48.432;11.350;2023-03-31T02:31:20;4.68;;;3.15;;
47778;SDS011;33538;48.432;11.350;2023-03-31T02:33:52;5.13;;;2.63;;
47778;SDS011;33538;48.432;11.350;2023-03-31T02:36:19;7.30;;;2.85;;
47778;SDS011;33538;48.432;11.350;2023-03-31T02:38:47;7.28;;;3.13;;
47778;SDS011;33538;48.432;11.350;2023-03-31T02:41:17;7.50;;;3.60;;
47778;SDS011;33538;48.432;11.350;2023-03-31T02:43:43;5.22;;;2.78;;
47778;SDS011;33538;48.432;11.350;2023-03-31T02:46:12;6.63;;;3.13;;
47778;SDS011;33538;48.432;11.350;2023-03-31T02:48:39;7.55;;;3.15;;
47778;SDS011;33538;48.432;11.350;2023-03-31T02:54:28;5.30;;;2.58;;
47778;SDS011;33538;48.432;11.350;2023-03-31T02:57:11;4.72;;;2.85;;
47778;SDS011;33538;48.432;11.350;2023-03-31T02:59:56;3.95;;;2.55;;
47778;SDS011;33538;48.432;11.350;2023-03-31T03:02:34;4.50;;;2.83;;
47778;SDS011;33538;48.432;11.350;2023-03-31T03:05:18;7.20;;;2.92;;
47778;SDS011;33538;48.432;11.350;2023-03-31T03:07:55;5.45;;;3.15;;
47778;SDS011;33538;48.432;11.350;2023-03-31T03:10:32;5.72;;;3.03;;
47778;SDS011;33538;48.432;11.350;2023-03-31T03:13:05;4.57;;;2.10;;
47778;SDS011;33538;48.432;11.350;2023-03-31T03:15:42;4.72;;;2.35;;
47778;SDS011;33538;48.432;11.350;2023-03-31T03:18:14;5.60;;;2.22;;
47778;SDS011;33538;48.432;11.350;2023-03-31T03:20:41;6.60;;;2.58;;
47778;SDS011;33538;48.432;11.350;2023-03-31T03:23:08;8.35;;;2.95;;
47778;SDS011;33538;48.432;11.350;2023-03-31T03:25:34;9.00;;;3.00;;
47778;SDS011;33538;48.432;11.350;2023-03-31T03:28:01;5.65;;;2.90;;
47778;SDS011;33538;48.432;11.350;2023-03-31T03:30:28;10.23;;;3.40;;
47778;SDS011;33538;48.432;11.350;2023-03-31T03:32:55;9.95;;;2.80;;
47778;SDS011;33538;48.432;11.350;2023-03-31T03:35:23;9.32;;;3.03;;
47778;SDS011;33538;48.432;11.350;2023-03-31T03:37:50;5.85;;;2.85;;
47778;SDS011;33538;48.432;11.350;2023-03-31T03:40:17;3.95;;;2.70;;
47778;SDS011;33538;48.432;11.350;2023-03-31T03:42:43;4.72;;;2.88;;
47778;SDS011;33538;48.432;11.350;2023-03-31T03:45:10;5.07;;;2.75;;
47778;SDS011;33538;48.432;11.350;2023-03-31T03:47:37;10.48;;;3.80;;
47778;SDS011;33538;48.432;11.350;2023-03-31T03:50:04;8.20;;;3.10;;
47778;SDS011;33538;48.432;11.350;2023-03-31T03:52:33;7.00;;;3.28;;
47778;SDS011;33538;48.432;11.350;2023-03-31T03:55:00;7.68;;;3.67;;
47778;SDS011;33538;48.432;11.350;2023-03-31T03:57:26;4.43;;;3.15;;
47778;SDS011;33538;48.432;11.350;2023-03-31T03:59:53;7.35;;;3.20;;
47778;SDS011;33538;48.432;11.350;2023-03-31T04:02:20;10.68;;;3.40;;
47778;SDS011;33538;48.432;11.350;2023-03-31T04:04:47;5.78;;;3.08;;
47778;SDS011;33538;48.432;11.350;2023-03-31T04:07:14;10.00;;;3.10;;
47778;SDS011;33538;48.432;11.350;2023-03-31T04:09:42;7.30;;;3.50;;
47778;SDS011;33538;48.432;11.350;2023-03-31T04:12:08;12.02;;;3.80;;
47778;SDS011;33538;48.432;11.350;2023-03-31T04:14:35;6.88;;;3.38;;
47778;SDS011;33538;48.432;11.350;2023-03-31T04:17:02;6.00;;;3.60;;
47778;SDS011;33538;48.432;11.350;2023-03-31T04:19:29;7.35;;;3.08;;
47778;SDS011;33538;48.432;11.350;2023-03-31T04:21:55;5.80;;;3.60;;
47778;SDS011;33538;48.432;11.350;2023-03-31T04:24:22;6.95;;;3.25;;
47778;SDS011;33538;48.432;11.350;2023-03-31T04:26:50;8.52;;;3.42;;
47778;SDS011;33538;48.432;11.350;2023-03-31T04:29:17;8.80;;;2.88;;
47778;SDS011;33538;48.432;11.350;2023-03-31T04:31:43;5.18;;;3.03;;
47778;SDS011;33538;48.432;11.350;2023-03-31T04:34:11;5.82;;;3.38;;
47778;SDS011;33538;48.432;11.350;2023-03-31T04:36:39;8.98;;;3.83;;
47778;SDS011;33538;48.432;11.350;2023-03-31T04:39:06;6.80;;;3.47;;
47778;SDS011;33538;48.432;11.350;2023-03-31T04:41:32;7.30;;;3.50;;
47778;SDS011;33538;48.432;11.350;2023-03-31T04:44:00;8.15;;;3.20;;
47778;SDS011;33538;48.432;11.350;2023-03-31T04:46:27;8.18;;;3.10;;
47778;SDS011;33538;48.432;11.350;2023-03-31T04:48:54;6.30;;;3.38;;
47778;SDS011;33538;48.432;11.350;2023-03-31T04:51:21;6.30;;;3.63;;
47778;SDS011;33538;48.432;11.350;2023-03-31T04:53:47;6.85;;;3.65;;
47778;SDS011;33538;48.432;11.350;2023-03-31T04:56:14;5.78;;;3.55;;
47778;SDS011;33538;48.432;11.350;2023-03-31T04:58:41;7.80;;;3.25;;
47778;SDS011;33538;48.432;11.350;2023-03-31T05:01:09;7.72;;;3.80;;
47778;SDS011;33538;48.432;11.350;2023-03-31T05:03:36;9.60;;;4.50;;
47778;SDS011;33538;48.432;11.350;2023-03-31T05:06:03;11.02;;;4.05;;
47778;SDS011;33538;48.432;11.350;2023-03-31T05:08:30;10.13;;;4.47;;
47778;SDS011;33538;48.432;11.350;2023-03-31T05:10:57;9.27;;;4.28;;
47778;SDS011;33538;48.432;11.350;2023-03-31T05:13:24;12.23;;;4.53;;
47778;SDS011;33538;48.432;11.350;2023-03-31T05:15:50;7.30;;;3.78;;
47778;SDS011;33538;48.432;11.350;2023-03-31T05:18:18;6.53;;;3.88;;
47778;SDS011;33538;48.432;11.350;2023-03-31T05:20:45;8.45;;;3.95;;
47778;SDS011;33538;48.432;11.350;2023-03-31T05:23:12;11.65;;;4.55;;
47778;SDS011;33538;48.432;11.350;2023-03-31T05:25:39;7.30;;;3.72;;
47778;SDS011;33538;48.432;11.350;2023-03-31T05:28:06;8.77;;;4.25;;
47778;SDS011;33538;48.432;11.350;2023-03-31T05:30:34;9.07;;;3.63;;
47778;SDS011;33538;48.432;11.350;2023-03-31T05:33:00;12.07;;;4.53;;
47778;SDS011;33538;48.432;11.350;2023-03-31T05:35:29;7.20;;;3.45;;
47778;SDS011;33538;48.432;11.350;2023-03-31T05:37:55;8.77;;;4.00;;
47778;SDS011;33538;48.432;11.350;2023-03-31T05:40:22;7.65;;;4.20;;
47778;SDS011;33538;48.432;11.350;2023-03-31T05:42:49;12.15;;;4.90;;
47778;SDS011;33538;48.432;11.350;2023-03-31T05:45:16;8.43;;;3.90;;
47778;SDS011;33538;48.432;11.350;2023-03-31T05:47:43;8.05;;;4.22;;
47778;SDS011;33538;48.432;11.350;2023-03-31T05:50:10;6.82;;;3.88;;
47778;SDS011;33538;48.432;11.350;2023-03-31T05:52:41;8.98;;;4.50;;
47778;SDS011;33538;48.432;11.350;2023-03-31T05:55:08;6.43;;;4.45;;
47778;SDS011;33538;48.432;11.350;2023-03-31T05:57:35;9.23;;;4.57;;
47778;SDS011;33538;48.432;11.350;2023-03-31T06:00:02;11.98;;;4.95;;
47778;SDS011;33538;48.432;11.350;2023-03-31T06:02:30;5.30;;;3.80;;
47778;SDS011;33538;48.432;11.350;2023-03-31T06:04:58;7.22;;;4.57;;
47778;SDS011;33538;48.432;11.350;2023-03-31T06:07:25;11.13;;;4.97;;
47778;SDS011;33538;48.432;11.350;2023-03-31T06:09:53;8.00;;;4.40;;
47778;SDS011;33538;48.432;11.350;2023-03-31T06:12:20;5.90;;;4.05;;
47778;SDS011;33538;48.432;11.350;2023-03-31T06:14:47;8.38;;;4.15;;
47778;SDS011;33538;48.432;11.350;2023-03-31T06:17:13;13.85;;;4.43;;
47778;SDS011;33538;48.432;11.350;2023-03-31T06:19:40;8.15;;;4.47;;
47778;SDS011;33538;48.432;11.350;2023-03-31T06:22:07;9.02;;;4.50;;
47778;SDS011;33538;48.432;11.350;2023-03-31T06:24:34;8.27;;;4.03;;
47778;SDS011;33538;48.432;11.350;2023-03-31T06:27:02;7.43;;;4.30;;
47778;SDS011;33538;48.432;11.350;2023-03-31T06:29:28;10.27;;;4.47;;
47778;SDS011;33538;48.432;11.350;2023-03-31T06:31:55;7.10;;;4.13;;
47778;SDS011;33538;48.432;11.350;2023-03-31T06:34:22;8.82;;;4.28;;
47778;SDS011;33538;48.432;11.350;2023-03-31T06:36:49;6.00;;;3.83;;
47778;SDS011;33538;48.432;11.350;2023-03-31T06:39:15;8.25;;;4.88;;
47778;SDS011;33538;48.432;11.350;2023-03-31T06:41:42;6.75;;;3.90;;
47778;SDS011;33538;48.432;11.350;2023-03-31T06:44:10;8.80;;;4.20;;
47778;SDS011;33538;48.432;11.350;2023-03-31T06:46:37;11.18;;;5.13;;
47778;SDS011;33538;48.432;11.350;2023-03-31T06:49:04;7.75;;;4.18;;
47778;SDS011;33538;48.432;11.350;2023-03-31T06:51:30;8.85;;;4.05;;
47778;SDS011;33538;48.432;11.350;2023-03-31T06:53:58;7.57;;;4.38;;
47778;SDS011;33538;48.432;11.350;2023-03-31T06:56:24;7.28;;;4.13;;
47778;SDS011;33538;48.432;11.350;2023-03-31T06:58:51;6.32;;;3.80;;
47778;SDS011;33538;48.432;11.350;2023-03-31T07:01:19;8.18;;;3.42;;
47778;SDS011;33538;48.432;11.350;2023-03-31T07:03:46;8.23;;;4.15;;
47778;SDS011;33538;48.432;11.350;2023-03-31T07:06:13;8.75;;;4.32;;
47778;SDS011;33538;48.432;11.350;2023-03-31T07:08:40;8.65;;;4.45;;
47778;SDS011;33538;48.432;11.350;2023-03-31T07:11:06;7.63;;;4.82;;
47778;SDS011;33538;48.432;11.350;2023-03-31T07:13:34;8.48;;;4.15;;
47778;SDS011;33538;48.432;11.350;2023-03-31T07:16:00;9.40;;;4.78;;
47778;SDS011;33538;48.432;11.350;2023-03-31T07:18:28;9.15;;;4.63;;
47778;SDS011;33538;48.432;11.350;2023-03-31T07:20:57;13.07;;;4.88;;
47778;SDS011;33538;48.432;11.350;2023-03-31T07:23:24;7.75;;;4.18;;
47778;SDS011;33538;48.432;11.350;2023-03-31T07:25:51;8.25;;;4.70;;
47778;SDS011;33538;48.432;11.350;2023-03-31T07:28:18;8.65;;;5.25;;
47778;SDS011;33538;48.432;11.350;2023-03-31T07:30:45;9.00;;;4.70;;
47778;SDS011;33538;48.432;11.350;2023-03-31T07:33:12;9.27;;;4.78;;
47778;SDS011;33538;48.432;11.350;2023-03-31T07:35:40;14.10;;;5.07;;
47778;SDS011;33538;48.432;11.350;2023-03-31T07:38:07;8.93;;;4.55;;
47778;SDS011;33538;48.432;11.350;2023-03-31T07:40:35;11.25;;;5.25;;
47778;SDS011;33538;48.432;11.350;2023-03-31T07:43:02;10.35;;;4.65;;
47778;SDS011;33538;48.432;11.350;2023-03-31T07:45:29;11.10;;;5.30;;
47778;SDS011;33538;48.432;11.350;2023-03-31T07:47:56;10.32;;;5.43;;
47778;SDS011;33538;48.432;11.350;2023-03-31T07:50:23;11.60;;;5.57;;
47778;SDS011;33538;48.432;11.350;2023-03-31T07:52:51;12.73;;;5.43;;
47778;SDS011;33538;48.432;11.350;2023-03-31T07:55:18;13.00;;;5.55;;
47778;SDS011;33538;48.432;11.350;2023-03-31T07:57:45;13.50;;;6.40;;
47778;SDS011;33538;48.432;11.350;2023-03-31T08:00:12;17.42;;;7.28;;
47778;SDS011;33538;48.432;11.350;2023-03-31T08:02:41;12.18;;;5.60;;
47778;SDS011;33538;48.432;11.350;2023-03-31T08:05:09;11.85;;;6.15;;
47778;SDS011;33538;48.432;11.350;2023-03-31T08:07:37;19.70;;;7.22;;
47778;SDS011;33538;48.432;11.350;2023-03-31T08:10:08;12.15;;;5.78;;
47778;SDS011;33538;48.432;11.350;2023-03-31T08:12:36;13.65;;;6.25;;
47778;SDS011;33538;48.432;11.350;2023-03-31T08:15:03;14.90;;;5.88;;
47778;SDS011;33538;48.432;11.350;2023-03-31T08:17:31;9.52;;;5.78;;
47778;SDS011;33538;48.432;11.350;2023-03-31T08:19:58;10.20;;;5.40;;
47778;SDS011;33538;48.432;11.350;2023-03-31T08:22:31;9.67;;;5.10;;
47778;SDS011;33538;48.432;11.350;2023-03-31T08:24:58;11.98;;;5.75;;
47778;SDS011;33538;48.432;11.350;2023-03-31T08:27:26;10.35;;;4.63;;
47778;SDS011;33538;48.432;11.350;2023-03-31T08:29:53;10.50;;;4.82;;
47778;SDS011;33538;48.432;11.350;2023-03-31T08:32:20;11.55;;;4.90;;
47778;SDS011;33538;48.432;11.350;2023-03-31T08:34:48;10.05;;;5.25;;
47778;SDS011;33538;48.432;11.350;2023-03-31T08:37:14;10.75;;;4.18;;
47778;SDS011;33538;48.432;11.350;2023-03-31T08:39:41;8.25;;;4.57;;
47778;SDS011;33538;48.432;11.350;2023-03-31T08:42:10;9.45;;;3.80;;
47778;SDS011;33538;48.432;11.350;2023-03-31T08:44:43;8.52;;;4.32;;
47778;SDS011;33538;48.432;11.350;2023-03-31T08:47:16;10.15;;;4.82;;
47778;SDS011;33538;48.432;11.350;2023-03-31T08:49:47;7.82;;;4.13;;
47778;SDS011;33538;48.432;11.350;2023-03-31T08:52:17;12.07;;;4.93;;
47778;SDS011;33538;48.432;11.350;2023-03-31T08:54:48;6.85;;;4.30;;
47778;SDS011;33538;48.432;11.350;2023-03-31T08:57:19;7.65;;;3.88;;
47778;SDS011;33538;48.432;11.350;2023-03-31T08:59:51;6.30;;;3.65;;
47778;SDS011;33538;48.432;11.350;2023-03-31T09:02:20;10.70;;;4.43;;
47778;SDS011;33538;48.432;11.350;2023-03-31T09:04:59;6.82;;;3.60;;
47778;SDS011;33538;48.432;11.350;2023-03-31T09:07:47;8.93;;;3.83;;
47778;SDS011;33538;48.432;11.350;2023-03-31T09:10:25;4.70;;;2.80;;
47778;SDS011;33538;48.432;11.350;2023-03-31T09:13:00;5.40;;;3.35;;
47778;SDS011;33538;48.432;11.350;2023-03-31T09:15:37;6.13;;;3.65;;
47778;SDS011;33538;48.432;11.350;2023-03-31T09:18:10;5.43;;;3.13;;
47778;SDS011;33538;48.432;11.350;2023-03-31T09:20:43;7.88;;;3.17;;
47778;SDS011;33538;48.432;11.350;2023-03-31T09:23:16;4.30;;;2.53;;
47778;SDS011;33538;48.432;11.350;2023-03-31T09:25:51;5.38;;;3.55;;
47778;SDS011;33538;48.432;11.350;2023-03-31T09:28:20;5.30;;;2.65;;
47778;SDS011;33538;48.432;11.350;2023-03-31T09:30:57;3.30;;;2.08;;
47778;SDS011;33538;48.432;11.350;2023-03-31T09:33:34;5.00;;;2.63;;
47778;SDS011;33538;48.432;11.350;2023-03-31T09:36:07;3.85;;;2.53;;
47778;SDS011;33538;48.432;11.350;2023-03-31T09:38:40;3.67;;;2.30;;
47778;SDS011;33538;48.432;11.350;2023-03-31T09:41:08;4.72;;;2.17;;
47778;SDS011;33538;48.432;11.350;2023-03-31T09:43:36;3.70;;;1.90;;
47778;SDS011;33538;48.432;11.350;2023-03-31T09:46:09;4.03;;;1.92;;
47778;SDS011;33538;48.432;11.350;2023-03-31T09:48:45;2.70;;;1.50;;
47778;SDS011;33538;48.432;11.350;2023-03-31T09:51:17;4.32;;;2.00;;
47778;SDS011;33538;48.432;11.350;2023-03-31T09:53:49;2.92;;;1.80;;
47778;SDS011;33538;48.432;11.350;2023-03-31T09:56:31;5.60;;;1.63;;
47778;SDS011;33538;48.432;11.350;2023-03-31T09:59:11;2.10;;;1.42;;
47778;SDS011;33538;48.432;11.350;2023-03-31T10:01:41;4.82;;;1.63;;
47778;SDS011;33538;48.432;11.350;2023-03-31T10:04:09;2.13;;;1.35;;
47778;SDS011;33538;48.432;11.350;2023-03-31T10:06:41;4.25;;;1.90;;
47778;SDS011;33538;48.432;11.350;2023-03-31T10:09:08;4.65;;;2.60;;
47778;SDS011;33538;48.432;11.350;2023-03-31T10:11:36;2.75;;;1.55;;
47778;SDS011;33538;48.432;11.350;2023-03-31T10:14:06;2.85;;;1.70;;
47778;SDS011;33538;48.432;11.350;2023-03-31T10:16:43;2.45;;;1.27;;
47778;SDS011;33538;48.432;11.350;2023-03-31T10:19:17;2.35;;;1.33;;
47778;SDS011;33538;48.432;11.350;2023-03-31T10:21:47;1.77;;;1.10;;
47778;SDS011;33538;48.432;11.350;2023-03-31T10:24:20;3.00;;;1.55;;
47778;SDS011;33538;48.432;11.350;2023-03-31T10:26:47;3.92;;;1.55;;
47778;SDS011;33538;48.432;11.350;2023-03-31T10:29:18;5.35;;;1.55;;
47778;SDS011;33538;48.432;11.350;2023-03-31T10:31:50;2.42;;;1.23;;
47778;SDS011;33538;48.432;11.350;2023-03-31T10:34:17;7.70;;;1.88;;
47778;SDS011;33538;48.432;11.350;2023-03-31T10:36:45;2.15;;;1.50;;
47778;SDS011;33538;48.432;11.350;2023-03-31T10:39:13;2.65;;;1.30;;
47778;SDS011;33538;48.432;11.350;2023-03-31T10:41:41;2.30;;;1.00;;
47778;SDS011;33538;48.432;11.350;2023-03-31T10:44:28;3.45;;;1.38;;
47778;SDS011;33538;48.432;11.350;2023-03-31T10:47:02;2.63;;;1.25;;
47778;SDS011;33538;48.432;11.350;2023-03-31T10:49:35;2.40;;;1.30;;
47778;SDS011;33538;48.432;11.350;2023-03-31T10:52:08;3.97;;;1.00;;
47778;SDS011;33538;48.432;11.350;2023-03-31T10:54:48;1.77;;;1.20;;
47778;SDS011;33538;48.432;11.350;2023-03-31T10:57:25;3.60;;;1.98;;
47778;SDS011;33538;48.432;11.350;2023-03-31T11:00:06;2.60;;;1.02;;
47778;SDS011;33538;48.432;11.350;2023-03-31T11:02:46;4.82;;;1.10;;
47778;SDS011;33538;48.432;11.350;2023-03-31T11:05:28;1.60;;;1.23;;
47778;SDS011;33538;48.432;11.350;2023-03-31T11:08:04;5.18;;;1.55;;
47778;SDS011;33538;48.432;11.350;2023-03-31T11:10:48;1.75;;;1.08;;
47778;SDS011;33538;48.432;11.350;2023-03-31T11:13:25;1.83;;;1.13;;
47778;SDS011;33538;48.432;11.350;2023-03-31T11:15:59;1.77;;;1.35;;
47778;SDS011;33538;48.432;11.350;2023-03-31T11:18:41;1.15;;;0.90;;
47778;SDS011;33538;48.432;11.350;2023-03-31T11:21:17;2.70;;;1.10;;
47778;SDS011;33538;48.432;11.350;2023-03-31T11:23:50;3.47;;;1.08;;
47778;SDS011;33538;48.432;11.350;2023-03-31T11:26:25;1.08;;;0.68;;
47778;SDS011;33538;48.432;11.350;2023-03-31T11:29:05;1.95;;;0.60;;
47778;SDS011;33538;48.432;11.350;2023-03-31T11:31:47;0.68;;;0.50;;
47778;SDS011;33538;48.432;11.350;2023-03-31T11:34:23;1.03;;;0.77;;
47778;SDS011;33538;48.432;11.350;2023-03-31T11:37:06;1.50;;;0.90;;
47778;SDS011;33538;48.432;11.350;2023-03-31T11:39:47;2.95;;;1.00;;
47778;SDS011;33538;48.432;11.350;2023-03-31T11:42:24;1.70;;;0.95;;
47778;SDS011;33538;48.432;11.350;2023-03-31T11:44:53;1.10;;;0.70;;
47778;SDS011;33538;48.432;11.350;2023-03-31T11:47:25;1.50;;;0.85;;
47778;SDS011;33538;48.432;11.350;2023-03-31T11:49:58;1.35;;;0.80;;
47778;SDS011;33538;48.432;11.350;2023-03-31T11:52:29;6.45;;;1.02;;
47778;SDS011;33538;48.432;11.350;2023-03-31T11:54:59;1.50;;;0.80;;
47778;SDS011;33538;48.432;11.350;2023-03-31T11:57:31;0.32;;;0.28;;
47778;SDS011;33538;48.432;11.350;2023-03-31T12:00:02;3.03;;;0.98;;
47778;SDS011;33538;48.432;11.350;2023-03-31T12:02:37;4.28;;;1.20;;
47778;SDS011;33538;48.432;11.350;2023-03-31T12:05:10;2.75;;;1.20;;
47778;SDS011;33538;48.432;11.350;2023-03-31T12:07:40;3.17;;;1.33;;
47778;SDS011;33538;48.432;11.350;2023-03-31T12:10:13;4.10;;;1.42;;
47778;SDS011;33538;48.432;11.350;2023-03-31T12:12:44;2.35;;;1.08;;
47778;SDS011;33538;48.432;11.350;2023-03-31T12:15:18;1.52;;;1.15;;
47778;SDS011;33538;48.432;11.350;2023-03-31T12:17:49;3.50;;;1.00;;
47778;SDS011;33538;48.432;11.350;2023-03-31T12:20:25;2.22;;;1.13;;
47778;SDS011;33538;48.432;11.350;2023-03-31T12:22:56;1.27;;;0.30;;
47778;SDS011;33538;48.432;11.350;2023-03-31T12:25:25;1.15;;;0.90;;
47778;SDS011;33538;48.432;11.350;2023-03-31T12:28:02;1.15;;;0.60;;
47778;SDS011;33538;48.432;11.350;2023-03-31T12:30:29;1.90;;;1.05;;
47778;SDS011;33538;48.432;11.350;2023-03-31T12:32:57;1.77;;;0.80;;
47778;SDS011;33538;48.432;11.350;2023-03-31T12:35:31;2.13;;;0.70;;
47778;SDS011;33538;48.432;11.350;2023-03-31T12:38:17;3.70;;;0.85;;
47778;SDS011;33538;48.432;11.350;2023-03-31T12:40:56;1.00;;;0.70;;
47778;SDS011;33538;48.432;11.350;2023-03-31T12:49:24;1.42;;;0.57;;
47778;SDS011;33538;48.432;11.350;2023-03-31T12:52:04;3.25;;;0.70;;
47778;SDS011;33538;48.432;11.350;2023-03-31T12:54:43;7.78;;;0.90;;
47778;SDS011;33538;48.432;11.350;2023-03-31T12:57:25;4.80;;;1.40;;
47778;SDS011;33538;48.432;11.350;2023-03-31T13:00:08;2.33;;;0.85;;
47778;SDS011;33538;48.432;11.350;2023-03-31T13:05:57;1.25;;;0.80;;
47778;SDS011;33538;48.432;11.350;2023-03-31T13:11:33;0.55;;;0.50;;
47778;SDS011;33538;48.432;11.350;2023-03-31T13:14:03;2.63;;;0.47;;
47778;SDS011;33538;48.432;11.350;2023-03-31T13:16:32;2.10;;;0.73;;
47778;SDS011;33538;48.432;11.350;2023-03-31T13:19:00;2.42;;;0.50;;
47778;SDS011;33538;48.432;11.350;2023-03-31T13:21:27;2.45;;;0.75;;
47778;SDS011;33538;48.432;11.350;2023-03-31T13:23:59;3.40;;;1.20;;
47778;SDS011;33538;48.432;11.350;2023-03-31T13:26:36;1.35;;;0.63;;
47778;SDS011;33538;48.432;11.350;2023-03-31T13:32:16;0.95;;;0.45;;
47778;SDS011;33538;48.432;11.350;2023-03-31T13:34:46;2.65;;;0.45;;
47778;SDS011;33538;48.432;11.350;2023-03-31T13:37:20;1.05;;;0.30;;
47778;SDS011;33538;48.432;11.350;2023-03-31T13:40:06;4.72;;;0.68;;
47778;SDS011;33538;48.432;11.350;2023-03-31T13:42:57;0.68;;;0.47;;
47778;SDS011;33538;48.432;11.350;2023-03-31T13:45:56;3.22;;;0.47;;
47778;SDS011;33538;48.432;11.350;2023-03-31T13:48:37;0.57;;;0.20;;
47778;SDS011;33538;48.432;11.350;2023-03-31T13:51:17;1.67;;;0.40;;
47778;SDS011;33538;48.432;11.350;2023-03-31T13:54:02;1.13;;;0.20;;
47778;SDS011;33538;48.432;11.350;2023-03-31T13:56:49;0.57;;;0.30;;
47778;SDS011;33538;48.432;11.350;2023-03-31T13:59:32;0.55;;;0.25;;
47778;SDS011;33538;48.432;11.350;2023-03-31T14:02:22;0.60;;;0.40;;
47778;SDS011;33538;48.432;11.350;2023-03-31T14:05:06;1.38;;;0.20;;
47778;SDS011;33538;48.432;11.350;2023-03-31T14:07:52;1.75;;;0.20;;
47778;SDS011;33538;48.432;11.350;2023-03-31T14:10:21;0.30;;;0.30;;
47778;SDS011;33538;48.432;11.350;2023-03-31T14:12:51;0.50;;;0.20;;
47778;SDS011;33538;48.432;11.350;2023-03-31T14:15:29;2.72;;;0.25;;
47778;SDS011;33538;48.432;11.350;2023-03-31T14:17:56;1.30;;;0.30;;
47778;SDS011;33538;48.432;11.350;2023-03-31T14:20:27;0.63;;;0.38;;
47778;SDS011;33538;48.432;11.350;2023-03-31T14:25:49;3.40;;;0.40;;
47778;SDS011;33538;48.432;11.350;2023-03-31T14:31:21;0.93;;;0.30;;
47778;SDS011;33538;48.432;11.350;2023-03-31T14:34:02;1.25;;;0.30;;
47778;SDS011;33538;48.432;11.350;2023-03-31T14:36:45;0.82;;;0.50;;
47778;SDS011;33538;48.432;11.350;2023-03-31T14:39:19;1.67;;;0.28;;
47778;SDS011;33538;48.432;11.350;2023-03-31T14:41:50;0.13;;;0.13;;
47778;SDS011;33538;48.432;11.350;2023-03-31T14:44:19;0.10;;;0.10;;
47778;SDS011;33538;48.432;11.350;2023-03-31T14:46:46;0.63;;;0.25;;
47778;SDS011;33538;48.432;11.350;2023-03-31T14:49:14;0.43;;;0.28;;
47778;SDS011;33538;48.432;11.350;2023-03-31T14:51:45;0.82;;;0.30;;
47778;SDS011;33538;48.432;11.350;2023-03-31T14:54:15;0.98;;;0.45;;
47778;SDS011;33538;48.432;11.350;2023-03-31T14:56:43;2.78;;;0.63;;
47778;SDS011;33538;48.432;11.350;2023-03-31T14:59:13;0.52;;;0.28;;
47778;SDS011;33538;48.432;11.350;2023-03-31T15:01:46;0.30;;;0.30;;
47778;SDS011;33538;48.432;11.350;2023-03-31T15:04:15;1.02;;;0.47;;
47778;SDS011;33538;48.432;11.350;2023-03-31T15:06:48;2.42;;;0.43;;
47778;SDS011;33538;48.432;11.350;2023-03-31T15:09:17;0.55;;;0.35;;
47778;SDS011;33538;48.432;11.350;2023-03-31T15:11:46;0.50;;;0.40;;
47778;SDS011;33538;48.432;11.350;2023-03-31T15:14:17;2.45;;;0.40;;
47778;SDS011;33538;48.432;11.350;2023-03-31T15:16:48;3.08;;;0.73;;
47778;SDS011;33538;48.432;11.350;2023-03-31T15:19:17;2.53;;;0.73;;
47778;SDS011;33538;48.432;11.350;2023-03-31T15:21:47;0.52;;;0.30;;
47778;SDS011;33538;48.432;11.350;2023-03-31T15:24:19;3.22;;;0.50;;
47778;SDS011;33538;48.432;11.350;2023-03-31T15:26:48;0.50;;;0.22;;
47778;SDS011;33538;48.432;11.350;2023-03-31T15:29:22;1.67;;;0.60;;